Time;durP1;ratioP1;P1;durP2;ratioP2;P2;SDS_P1;SDS_P2;PMS_P1;PMS_P2;Temp;Humidity;BMP_temperature;BMP_pressure;BME280_temperature;BME280_humidity;BME280_pressure;Samples;Min_cycle;Max_cycle;Signal;HPM_P1;HPM_P2
2022/01/11 00:00:35;;;;;;;25.73;13.75;;;;;;;;;;2299417;58;21120;-75
2022/01/11 00:03:03;;;;;;;22.75;12.20;;;;;;;;;;2299965;58;21068;-75
2022/01/11 00:05:34;;;;;;;24.12;13.13;;;;;;;;;;2300185;58;21064;-75
2022/01/11 00:08:01;;;;;;;26.77;13.90;;;;;;;;;;2300378;58;21060;-75
2022/01/11 00:10:32;;;;;;;24.95;13.90;;;;;;;;;;2300368;58;21124;-75
2022/01/11 00:13:00;;;;;;;25.80;12.90;;;;;;;;;;2300118;58;22340;-76
2022/01/11 00:15:28;;;;;;;23.12;13.02;;;;;;;;;;2376476;54;21441;-75
2022/01/11 00:17:57;;;;;;;24.63;14.23;;;;;;;;;;2300585;58;21060;-75
2022/01/11 00:20:24;;;;;;;24.67;13.05;;;;;;;;;;2414224;54;21087;-75
2022/01/11 00:25:44;;;;;;;26.83;13.35;;;;;;;;;;2319529;54;21059;-76
2022/01/11 00:28:12;;;;;;;25.27;12.73;;;;;;;;;;2299743;58;21131;-75
2022/01/11 00:30:41;;;;;;;24.85;13.27;;;;;;;;;;2299537;58;21076;-75
2022/01/11 00:33:12;;;;;;;23.20;13.00;;;;;;;;;;2299966;58;21063;-75
2022/01/11 00:35:42;;;;;;;26.62;13.68;;;;;;;;;;2299488;58;21052;-75
2022/01/11 00:38:10;;;;;;;22.20;11.40;;;;;;;;;;2299929;58;21056;-75
2022/01/11 00:40:37;;;;;;;21.48;12.37;;;;;;;;;;2299706;58;21048;-75
2022/01/11 00:43:06;;;;;;;25.98;13.55;;;;;;;;;;2300054;58;21072;-75
2022/01/11 00:45:33;;;;;;;22.77;12.45;;;;;;;;;;2300019;58;21048;-75
2022/01/11 00:48:00;;;;;;;22.27;11.48;;;;;;;;;;2300201;58;21119;-75
2022/01/11 00:50:27;;;;;;;24.40;13.60;;;;;;;;;;2299971;58;21183;-75
2022/01/11 00:52:54;;;;;;;22.73;12.65;;;;;;;;;;2300125;58;21071;-75
2022/01/11 00:55:22;;;;;;;25.02;12.32;;;;;;;;;;2300890;54;21052;-76
2022/01/11 00:57:49;;;;;;;21.77;12.00;;;;;;;;;;2437535;54;21060;-75
2022/01/11 01:00:16;;;;;;;23.75;12.85;;;;;;;;;;2299662;58;21550;-75
2022/01/11 01:02:44;;;;;;;21.65;10.73;;;;;;;;;;2300226;58;21064;-75
2022/01/11 01:05:11;;;;;;;23.05;12.13;;;;;;;;;;2300180;58;21352;-76
2022/01/11 01:07:38;;;;;;;21.45;11.88;;;;;;;;;;2300017;58;21190;-76
2022/01/11 01:10:12;;;;;;;22.80;11.85;;;;;;;;;;2368271;54;21064;-76
2022/01/11 01:12:39;;;;;;;20.40;10.60;;;;;;;;;;2300285;58;21450;-76
2022/01/11 01:15:08;;;;;;;18.83;10.82;;;;;;;;;;2300287;58;21132;-75
2022/01/11 01:17:35;;;;;;;21.35;10.38;;;;;;;;;;2299833;58;21060;-76
2022/01/11 01:20:02;;;;;;;19.25;10.48;;;;;;;;;;2299050;58;21151;-75
2022/01/11 01:22:29;;;;;;;21.70;11.32;;;;;;;;;;2299761;58;21084;-75
2022/01/11 01:24:56;;;;;;;23.08;11.68;;;;;;;;;;2302152;54;21063;-76
2022/01/11 01:27:23;;;;;;;21.60;10.65;;;;;;;;;;2299737;58;21637;-75
2022/01/11 01:29:50;;;;;;;17.70;9.65;;;;;;;;;;2299693;58;21052;-76
2022/01/11 01:32:17;;;;;;;20.62;10.68;;;;;;;;;;2302025;54;21143;-76
2022/01/11 01:34:44;;;;;;;19.10;10.57;;;;;;;;;;2300058;58;21647;-76
2022/01/11 01:37:11;;;;;;;20.65;10.98;;;;;;;;;;2322072;54;21111;-75
2022/01/11 01:39:38;;;;;;;16.80;9.38;;;;;;;;;;2299753;58;21052;-76
2022/01/11 01:42:07;;;;;;;19.92;11.73;;;;;;;;;;2299800;58;21139;-76
2022/01/11 01:44:34;;;;;;;18.17;10.60;;;;;;;;;;2300082;58;21083;-75
2022/01/11 01:47:01;;;;;;;20.73;10.73;;;;;;;;;;2300246;58;21363;-75
2022/01/11 01:49:30;;;;;;;19.75;10.48;;;;;;;;;;2299339;58;21088;-76
2022/01/11 01:51:57;;;;;;;20.25;11.80;;;;;;;;;;2300062;58;21060;-76
2022/01/11 01:54:25;;;;;;;20.15;10.93;;;;;;;;;;2299602;58;21654;-75
2022/01/11 01:56:52;;;;;;;18.15;10.20;;;;;;;;;;2302280;54;21064;-76
2022/01/11 01:59:19;;;;;;;20.10;11.07;;;;;;;;;;2299602;58;21064;-76
2022/01/11 02:01:48;;;;;;;19.67;10.52;;;;;;;;;;2299981;58;21573;-76
2022/01/11 02:04:17;;;;;;;21.48;11.32;;;;;;;;;;2354326;54;21242;-76
2022/01/11 02:06:44;;;;;;;19.77;10.80;;;;;;;;;;2300334;58;21136;-75
2022/01/11 02:09:12;;;;;;;22.27;11.93;;;;;;;;;;2299655;58;21626;-75
2022/01/11 02:11:39;;;;;;;18.73;10.70;;;;;;;;;;2300342;58;21143;-75
2022/01/11 02:14:06;;;;;;;22.27;11.77;;;;;;;;;;2432846;54;21566;-76
2022/01/11 02:16:34;;;;;;;20.20;11.52;;;;;;;;;;2300967;58;21135;-75
2022/01/11 02:19:01;;;;;;;24.02;12.15;;;;;;;;;;2300429;58;21087;-75
2022/01/11 02:21:28;;;;;;;23.85;12.05;;;;;;;;;;2301048;58;21593;-75
2022/01/11 02:23:57;;;;;;;20.30;11.40;;;;;;;;;;2405265;54;21049;-75
2022/01/11 02:26:24;;;;;;;20.90;11.65;;;;;;;;;;2301035;58;21139;-75
2022/01/11 02:28:52;;;;;;;19.48;11.43;;;;;;;;;;2305595;54;21131;-75
2022/01/11 02:31:19;;;;;;;20.77;11.02;;;;;;;;;;2301361;58;21061;-75
2022/01/11 02:33:48;;;;;;;21.40;11.98;;;;;;;;;;2301160;58;21044;-76
2022/01/11 02:36:18;;;;;;;21.85;12.10;;;;;;;;;;2300780;58;21064;-76
2022/01/11 02:38:46;;;;;;;23.23;12.68;;;;;;;;;;2301115;58;21052;-75
2022/01/11 02:41:13;;;;;;;25.58;13.70;;;;;;;;;;2300970;58;21056;-76
2022/01/11 02:43:42;;;;;;;23.45;11.65;;;;;;;;;;2319611;54;21577;-76
2022/01/11 02:46:10;;;;;;;23.48;11.50;;;;;;;;;;2301200;58;21127;-75
2022/01/11 02:48:37;;;;;;;22.05;11.10;;;;;;;;;;2301133;58;21617;-76
2022/01/11 02:51:05;;;;;;;23.42;11.80;;;;;;;;;;2300988;58;21078;-76
2022/01/11 02:53:32;;;;;;;23.83;11.90;;;;;;;;;;2301318;58;21064;-75
2022/01/11 02:55:59;;;;;;;22.90;12.45;;;;;;;;;;2301038;58;21059;-76
2022/01/11 02:58:26;;;;;;;23.60;12.40;;;;;;;;;;2390966;54;21673;-75
2022/01/11 03:00:53;;;;;;;22.70;11.77;;;;;;;;;;2300385;58;21095;-75
2022/01/11 03:03:22;;;;;;;25.98;11.70;;;;;;;;;;2301615;58;21052;-76
2022/01/11 03:05:50;;;;;;;25.17;13.30;;;;;;;;;;2301355;58;21092;-75
2022/01/11 03:08:17;;;;;;;26.85;14.07;;;;;;;;;;2301214;58;21056;-75
2022/01/11 03:10:45;;;;;;;26.77;14.73;;;;;;;;;;2300550;58;21143;-74
2022/01/11 03:13:12;;;;;;;25.15;12.68;;;;;;;;;;2301364;58;21127;-76
2022/01/11 03:15:40;;;;;;;26.77;14.15;;;;;;;;;;2301100;58;21056;-75
2022/01/11 03:18:07;;;;;;;25.50;13.18;;;;;;;;;;2300742;58;21138;-76
2022/01/11 03:20:35;;;;;;;26.62;13.40;;;;;;;;;;2300767;58;21700;-75
2022/01/11 03:23:02;;;;;;;25.70;13.52;;;;;;;;;;2301317;58;21227;-76
2022/01/11 03:25:29;;;;;;;26.75;15.05;;;;;;;;;;2301220;58;21055;-76
2022/01/11 03:27:56;;;;;;;26.73;14.32;;;;;;;;;;2300786;58;21242;-75
2022/01/11 03:30:23;;;;;;;24.30;13.23;;;;;;;;;;2300107;58;21658;-75
2022/01/11 03:32:51;;;;;;;31.83;15.57;;;;;;;;;;2300584;58;21115;-75
2022/01/11 03:35:18;;;;;;;29.42;15.52;;;;;;;;;;2301109;58;21602;-76
2022/01/11 03:37:46;;;;;;;34.63;15.57;;;;;;;;;;2301489;58;21119;-76
2022/01/11 03:40:15;;;;;;;26.12;14.05;;;;;;;;;;2367977;54;21198;-76
2022/01/11 03:42:42;;;;;;;35.05;16.50;;;;;;;;;;2301034;58;21056;-75
2022/01/11 03:45:10;;;;;;;29.85;15.30;;;;;;;;;;2311131;54;21076;-75
2022/01/11 03:47:37;;;;;;;27.77;15.23;;;;;;;;;;2301432;58;21135;-76
2022/01/11 03:50:06;;;;;;;30.05;14.85;;;;;;;;;;2300570;58;21056;-75
2022/01/11 03:52:34;;;;;;;28.58;13.65;;;;;;;;;;2301174;58;21097;-75
2022/01/11 03:55:10;;;;;;;26.50;13.62;;;;;;;;;;2300786;58;21076;-76
2022/01/11 03:57:37;;;;;;;29.10;14.93;;;;;;;;;;2409122;54;21578;-76
2022/01/11 04:00:06;;;;;;;27.08;13.35;;;;;;;;;;2300589;58;21060;-76
2022/01/11 04:02:33;;;;;;;27.67;13.00;;;;;;;;;;2301229;58;21582;-76
2022/01/11 04:05:00;;;;;;;28.83;14.70;;;;;;;;;;2301470;58;21582;-75
2022/01/11 04:07:28;;;;;;;27.15;13.52;;;;;;;;;;2301284;58;21064;-76
2022/01/11 04:09:57;;;;;;;25.42;13.38;;;;;;;;;;2300588;58;21143;-76
2022/01/11 04:12:24;;;;;;;27.65;14.52;;;;;;;;;;2301095;58;21044;-76
2022/01/11 04:14:51;;;;;;;26.20;14.48;;;;;;;;;;2300733;58;21060;-75
2022/01/11 04:17:19;;;;;;;26.40;13.77;;;;;;;;;;2300754;58;21135;-75
2022/01/11 04:19:46;;;;;;;28.75;13.02;;;;;;;;;;2300736;58;21143;-76
2022/01/11 04:22:13;;;;;;;31.20;15.68;;;;;;;;;;2301414;58;21163;-75
2022/01/11 04:24:40;;;;;;;26.62;13.65;;;;;;;;;;2411068;54;71450;-79
2022/01/11 04:27:07;;;;;;;26.27;13.32;;;;;;;;;;2301844;58;21062;-81
2022/01/11 04:29:34;;;;;;;28.35;14.30;;;;;;;;;;2301326;58;21046;-79
2022/01/11 04:32:01;;;;;;;28.85;14.07;;;;;;;;;;2538827;54;21067;-81
2022/01/11 04:34:28;;;;;;;38.20;18.20;;;;;;;;;;2312954;57;21068;-79
2022/01/11 04:36:55;;;;;;;27.13;14.02;;;;;;;;;;2571731;54;21643;-80
2022/01/11 04:39:22;;;;;;;26.75;13.82;;;;;;;;;;2571330;54;21115;-80
2022/01/11 04:41:49;;;;;;;24.65;13.50;;;;;;;;;;2328179;57;21048;-79
2022/01/11 04:44:16;;;;;;;28.23;14.85;;;;;;;;;;2570415;54;21135;-80
2022/01/11 04:46:43;;;;;;;27.15;14.27;;;;;;;;;;2328422;57;21174;-80
2022/01/11 04:49:10;;;;;;;29.87;14.43;;;;;;;;;;2327780;57;21060;-81
2022/01/11 04:51:37;;;;;;;30.67;15.20;;;;;;;;;;2571339;54;21115;-80
2022/01/11 04:54:04;;;;;;;28.52;14.05;;;;;;;;;;2571453;54;21024;-82
2022/01/11 04:56:31;;;;;;;34.35;16.30;;;;;;;;;;2329973;57;21140;-79
2022/01/11 04:58:59;;;;;;;32.50;15.02;;;;;;;;;;2330313;57;21124;-81
2022/01/11 05:01:25;;;;;;;31.27;14.30;;;;;;;;;;2330467;57;21139;-83
2022/01/11 05:03:53;;;;;;;28.05;14.00;;;;;;;;;;2330244;57;21064;-82
2022/01/11 05:06:20;;;;;;;30.70;14.68;;;;;;;;;;2573657;54;21056;-81
2022/01/11 05:08:48;;;;;;;26.10;13.90;;;;;;;;;;2329525;57;21072;-78
2022/01/11 05:11:15;;;;;;;28.95;13.90;;;;;;;;;;2330372;57;21052;-80
2022/01/11 05:13:42;;;;;;;30.50;15.48;;;;;;;;;;2574124;54;21625;-80
2022/01/11 05:16:09;;;;;;;32.10;15.00;;;;;;;;;;2572128;54;21055;-79
2022/01/11 05:18:36;;;;;;;31.15;15.48;;;;;;;;;;2572894;54;21048;-81
2022/01/11 05:21:03;;;;;;;33.55;15.68;;;;;;;;;;2572844;54;21136;-80
2022/01/11 05:23:30;;;;;;;29.27;14.05;;;;;;;;;;2573064;54;21118;-82
2022/01/11 05:25:57;;;;;;;29.27;13.73;;;;;;;;;;2573215;54;21123;-80
2022/01/11 05:28:24;;;;;;;35.85;15.40;;;;;;;;;;2329950;57;21088;-80
2022/01/11 05:30:51;;;;;;;32.38;14.02;;;;;;;;;;2572061;54;21063;-81
2022/01/11 05:33:18;;;;;;;37.55;15.93;;;;;;;;;;2574044;54;21028;-80
2022/01/11 05:35:46;;;;;;;110.70;21.70;;;;;;;;;;2330994;57;21095;-83
2022/01/11 05:38:14;;;;;;;33.47;15.18;;;;;;;;;;2330575;57;21047;-81
2022/01/11 05:40:41;;;;;;;29.63;13.95;;;;;;;;;;2330745;57;21056;-80
2022/01/11 05:43:09;;;;;;;30.40;15.02;;;;;;;;;;2330799;57;21111;-80
2022/01/11 05:45:36;;;;;;;31.50;15.77;;;;;;;;;;2331743;57;21823;-82
2022/01/11 05:48:04;;;;;;;36.70;15.57;;;;;;;;;;2575505;54;21151;-81
2022/01/11 05:50:31;;;;;;;31.27;15.27;;;;;;;;;;2330632;57;21064;-81
2022/01/11 05:52:58;;;;;;;43.45;18.10;;;;;;;;;;2331269;57;21047;-80
2022/01/11 05:55:25;;;;;;;44.63;17.73;;;;;;;;;;2330542;57;21119;-81
2022/01/11 05:57:52;;;;;;;38.72;16.77;;;;;;;;;;2331263;57;21143;-80
2022/01/11 06:00:20;;;;;;;43.67;17.73;;;;;;;;;;2333013;57;21055;-82
2022/01/11 06:02:48;;;;;;;40.53;18.10;;;;;;;;;;2572857;54;21071;-82
2022/01/11 06:05:16;;;;;;;45.78;19.30;;;;;;;;;;2575820;54;21070;-81
2022/01/11 06:07:43;;;;;;;44.22;18.10;;;;;;;;;;2574876;53;21115;-81
2022/01/11 06:10:11;;;;;;;47.50;18.33;;;;;;;;;;2573985;54;21075;-81
2022/01/11 06:12:38;;;;;;;43.85;19.35;;;;;;;;;;2572983;54;21108;-78
2022/01/11 06:15:06;;;;;;;45.10;17.30;;;;;;;;;;2329743;57;21120;-81
2022/01/11 06:17:33;;;;;;;50.95;20.55;;;;;;;;;;2331078;57;21032;-81
2022/01/11 06:20:00;;;;;;;45.75;19.52;;;;;;;;;;2330849;57;21048;-81
2022/01/11 06:22:27;;;;;;;44.33;18.17;;;;;;;;;;2574692;54;21119;-81
2022/01/11 06:24:54;;;;;;;40.95;18.05;;;;;;;;;;2574727;54;21195;-80
2022/01/11 06:27:21;;;;;;;43.15;18.00;;;;;;;;;;2331585;57;21043;-80
2022/01/11 06:29:48;;;;;;;47.92;19.25;;;;;;;;;;2331256;57;21095;-82
2022/01/11 06:32:15;;;;;;;43.65;16.02;;;;;;;;;;2575045;54;21111;-81
2022/01/11 06:34:42;;;;;;;39.53;17.25;;;;;;;;;;2331049;57;21079;-79
2022/01/11 06:37:09;;;;;;;44.95;17.27;;;;;;;;;;2331307;57;21060;-81
2022/01/11 06:39:36;;;;;;;46.53;17.25;;;;;;;;;;2331140;57;21102;-79
2022/01/11 06:42:05;;;;;;;42.10;17.55;;;;;;;;;;2331490;57;21390;-80
2022/01/11 06:44:32;;;;;;;45.35;17.58;;;;;;;;;;2573614;54;21127;-83
2022/01/11 06:46:59;;;;;;;44.90;17.30;;;;;;;;;;2331086;57;21052;-80
2022/01/11 06:49:26;;;;;;;54.90;21.98;;;;;;;;;;2330669;57;21055;-80
2022/01/11 06:51:53;;;;;;;43.25;17.73;;;;;;;;;;2330910;57;21584;-79
2022/01/11 06:54:20;;;;;;;43.15;18.65;;;;;;;;;;2331054;57;21059;-81
2022/01/11 06:56:47;;;;;;;40.35;17.65;;;;;;;;;;2574262;54;21067;-79
2022/01/11 06:59:14;;;;;;;44.17;20.27;;;;;;;;;;2330421;57;21044;-80
2022/01/11 07:01:41;;;;;;;46.65;19.08;;;;;;;;;;2574246;54;21055;-79
2022/01/11 07:04:08;;;;;;;43.55;18.15;;;;;;;;;;2330555;57;21123;-79
2022/01/11 07:06:35;;;;;;;45.60;17.50;;;;;;;;;;2573746;54;21127;-81
2022/01/11 07:09:02;;;;;;;46.53;19.50;;;;;;;;;;2573541;54;21065;-81
2022/01/11 07:11:29;;;;;;;48.08;19.60;;;;;;;;;;2574040;54;21044;-80
2022/01/11 07:13:56;;;;;;;44.30;18.80;;;;;;;;;;2574076;54;21107;-78
2022/01/11 07:16:23;;;;;;;42.97;17.67;;;;;;;;;;2573752;54;21115;-81
2022/01/11 07:18:50;;;;;;;46.60;18.60;;;;;;;;;;2330257;57;21349;-80
2022/01/11 07:21:17;;;;;;;46.20;18.62;;;;;;;;;;2330661;57;21551;-78
2022/01/11 07:23:44;;;;;;;40.63;17.40;;;;;;;;;;2330802;57;21063;-80
2022/01/11 07:26:11;;;;;;;43.63;18.45;;;;;;;;;;2330728;57;21088;-79
2022/01/11 07:28:38;;;;;;;42.38;16.37;;;;;;;;;;2573749;54;21146;-81
2022/01/11 07:31:08;;;;;;;42.78;17.23;;;;;;;;;;2330391;57;21060;-79
2022/01/11 07:33:35;;;;;;;42.47;17.17;;;;;;;;;;2330719;57;21059;-81
2022/01/11 07:36:02;;;;;;;47.05;17.67;;;;;;;;;;2330696;57;21094;-79
2022/01/11 07:38:28;;;;;;;45.00;18.40;;;;;;;;;;2330654;57;21068;-78
2022/01/11 07:40:55;;;;;;;40.78;16.60;;;;;;;;;;2330233;57;21043;-79
2022/01/11 07:43:22;;;;;;;38.03;17.25;;;;;;;;;;2573522;54;21544;-78
2022/01/11 07:45:49;;;;;;;39.90;16.77;;;;;;;;;;2330419;57;21071;-80
2022/01/11 07:48:16;;;;;;;39.83;15.63;;;;;;;;;;2330313;57;21111;-79
2022/01/11 07:50:43;;;;;;;48.78;18.67;;;;;;;;;;2573155;54;21032;-78
2022/01/11 07:53:10;;;;;;;41.70;17.50;;;;;;;;;;2330329;57;21071;-78
2022/01/11 07:55:38;;;;;;;42.85;17.42;;;;;;;;;;2573466;54;21099;-78
2022/01/11 07:58:05;;;;;;;40.22;15.98;;;;;;;;;;2573467;54;21067;-78
2022/01/11 08:00:32;;;;;;;44.85;17.62;;;;;;;;;;2572737;54;21075;-78
2022/01/11 08:02:59;;;;;;;48.30;17.37;;;;;;;;;;2573406;54;21043;-80
2022/01/11 08:05:26;;;;;;;40.67;16.60;;;;;;;;;;2572125;54;21044;-80
2022/01/11 08:07:53;;;;;;;36.45;15.23;;;;;;;;;;2329882;57;21040;-81
2022/01/11 08:10:20;;;;;;;36.92;15.82;;;;;;;;;;2329335;57;21075;-78
2022/01/11 08:12:47;;;;;;;41.05;15.57;;;;;;;;;;2329247;57;21060;-78
2022/01/11 08:15:14;;;;;;;44.60;17.62;;;;;;;;;;2329653;57;21059;-78
2022/01/11 08:17:41;;;;;;;36.88;15.40;;;;;;;;;;2329570;57;21045;-78
2022/01/11 08:20:09;;;;;;;35.03;15.70;;;;;;;;;;2572363;54;21067;-80
2022/01/11 08:22:36;;;;;;;43.08;16.67;;;;;;;;;;2329192;57;21048;-80
2022/01/11 08:25:04;;;;;;;37.05;15.32;;;;;;;;;;2569276;54;21035;-79
2022/01/11 08:27:31;;;;;;;44.13;15.13;;;;;;;;;;2329413;57;21064;-78
2022/01/11 08:29:58;;;;;;;39.97;15.68;;;;;;;;;;2328632;57;21126;-77
2022/01/11 08:32:25;;;;;;;40.78;17.52;;;;;;;;;;2328524;57;21075;-79
2022/01/11 08:34:52;;;;;;;41.72;16.30;;;;;;;;;;2328346;57;21548;-78
2022/01/11 08:37:19;;;;;;;43.58;17.37;;;;;;;;;;2329316;57;21655;-78
2022/01/11 08:39:46;;;;;;;35.85;17.12;;;;;;;;;;2329087;57;21111;-78
2022/01/11 08:42:12;;;;;;;35.25;15.55;;;;;;;;;;2571547;54;21347;-81
2022/01/11 08:44:40;;;;;;;40.85;17.50;;;;;;;;;;2572292;54;21112;-78
2022/01/11 08:47:07;;;;;;;41.40;16.67;;;;;;;;;;2571163;54;21159;-74
2022/01/11 08:49:34;;;;;;;40.30;16.95;;;;;;;;;;2328340;57;21576;-79
2022/01/11 08:52:01;;;;;;;37.22;17.12;;;;;;;;;;2328362;57;21055;-82
2022/01/11 08:54:28;;;;;;;34.95;15.93;;;;;;;;;;2572423;54;21056;-78
2022/01/11 08:56:55;;;;;;;38.92;16.30;;;;;;;;;;2328752;57;21099;-80
2022/01/11 08:59:25;;;;;;;35.15;15.52;;;;;;;;;;2329429;57;21071;-78
2022/01/11 09:01:52;;;;;;;32.80;15.68;;;;;;;;;;2572578;54;21072;-79
2022/01/11 09:04:22;;;;;;;35.83;15.13;;;;;;;;;;2329072;57;21060;-78
2022/01/11 09:06:49;;;;;;;34.78;14.45;;;;;;;;;;2572101;54;21051;-78
2022/01/11 09:09:16;;;;;;;34.88;15.38;;;;;;;;;;2328948;57;21072;-78
2022/01/11 09:11:43;;;;;;;39.10;16.25;;;;;;;;;;2572090;54;21059;-78
2022/01/11 09:14:11;;;;;;;33.67;14.40;;;;;;;;;;2572108;54;21035;-81
2022/01/11 09:16:38;;;;;;;35.95;15.32;;;;;;;;;;2330644;57;21196;-82
2022/01/11 09:19:05;;;;;;;38.10;15.27;;;;;;;;;;2331953;57;21206;-80
2022/01/11 09:21:33;;;;;;;34.33;15.55;;;;;;;;;;2331593;57;21146;-81
2022/01/11 09:24:00;;;;;;;36.33;14.90;;;;;;;;;;2575892;54;21036;-82
2022/01/11 09:26:27;;;;;;;32.35;13.68;;;;;;;;;;2332253;57;21056;-82
2022/01/11 09:28:54;;;;;;;32.13;13.05;;;;;;;;;;2331503;57;21052;-81
2022/01/11 09:31:21;;;;;;;33.50;14.70;;;;;;;;;;2331866;57;21043;-80
2022/01/11 09:33:51;;;;;;;33.47;13.85;;;;;;;;;;2333086;57;21084;-81
2022/01/11 09:36:18;;;;;;;31.55;13.45;;;;;;;;;;2331446;57;21131;-82
2022/01/11 09:38:45;;;;;;;34.42;13.32;;;;;;;;;;2330577;57;21133;-83
2022/01/11 09:41:12;;;;;;;29.27;13.40;;;;;;;;;;2330301;57;21068;-82
2022/01/11 09:43:41;;;;;;;26.77;12.77;;;;;;;;;;2329911;57;21143;-80
2022/01/11 09:46:08;;;;;;;32.10;13.35;;;;;;;;;;2574053;54;21108;-81
2022/01/11 09:48:35;;;;;;;34.60;14.73;;;;;;;;;;2574347;54;21028;-82
2022/01/11 09:51:02;;;;;;;32.80;14.02;;;;;;;;;;2330502;57;21068;-79
2022/01/11 09:53:30;;;;;;;30.67;13.45;;;;;;;;;;2330958;57;21052;-79
2022/01/11 09:55:57;;;;;;;27.92;14.10;;;;;;;;;;2330416;57;21139;-79
2022/01/11 09:58:24;;;;;;;37.47;14.15;;;;;;;;;;2328598;57;21574;-81
2022/01/11 10:00:51;;;;;;;32.08;13.02;;;;;;;;;;2330619;57;21083;-79
2022/01/11 10:03:18;;;;;;;33.72;13.65;;;;;;;;;;2573232;54;21165;-82
2022/01/11 10:05:45;;;;;;;33.92;15.63;;;;;;;;;;2329908;57;21048;-79
2022/01/11 10:08:25;;;;;;;38.28;15.15;;;;;;;;;;2573911;54;21072;-80
2022/01/11 10:10:53;;;;;;;31.55;13.32;;;;;;;;;;2330561;57;21123;-81
2022/01/11 10:13:30;;;;;;;34.22;13.48;;;;;;;;;;2328987;57;21119;-80
2022/01/11 10:15:58;;;;;;;31.27;15.02;;;;;;;;;;2573341;54;21095;-80
2022/01/11 10:18:35;;;;;;;26.73;13.40;;;;;;;;;;2330786;57;21051;-80
2022/01/11 10:21:02;;;;;;;30.25;12.98;;;;;;;;;;2330074;57;21063;-78
2022/01/11 10:23:33;;;;;;;28.00;11.80;;;;;;;;;;2330281;57;21047;-79
2022/01/11 10:26:00;;;;;;;27.40;11.65;;;;;;;;;;2370325;53;70566;-75
2022/01/11 10:28:34;;;;;;;26.75;11.65;;;;;;;;;;2339173;54;21055;-75
2022/01/11 10:31:01;;;;;;;29.33;12.45;;;;;;;;;;2302299;57;21145;-74
2022/01/11 10:33:28;;;;;;;25.58;10.77;;;;;;;;;;2302792;58;21069;-74
2022/01/11 10:35:55;;;;;;;23.83;10.93;;;;;;;;;;2305824;54;21042;-74
2022/01/11 10:38:26;;;;;;;26.58;10.38;;;;;;;;;;2303092;58;21121;-74
2022/01/11 10:40:53;;;;;;;23.75;10.15;;;;;;;;;;2302545;58;21049;-74
2022/01/11 10:43:22;;;;;;;23.98;10.57;;;;;;;;;;2303352;58;21062;-74
2022/01/11 10:45:50;;;;;;;20.15;9.75;;;;;;;;;;2330589;54;21118;-79
2022/01/11 10:48:17;;;;;;;23.58;10.73;;;;;;;;;;2302824;58;21069;-74
2022/01/11 10:50:45;;;;;;;24.98;10.40;;;;;;;;;;2302619;58;21125;-75
2022/01/11 10:53:14;;;;;;;29.85;11.10;;;;;;;;;;2301549;58;21062;-75
2022/01/11 10:55:41;;;;;;;23.83;10.93;;;;;;;;;;2302621;56;21066;-75
2022/01/11 10:58:10;;;;;;;20.92;8.98;;;;;;;;;;2302419;58;21126;-76
2022/01/11 11:00:38;;;;;;;27.70;10.73;;;;;;;;;;2302034;58;21847;-76
2022/01/11 11:03:07;;;;;;;22.58;9.80;;;;;;;;;;2316854;54;22248;-75
2022/01/11 11:05:36;;;;;;;24.10;10.35;;;;;;;;;;2302647;58;21113;-75
2022/01/11 11:08:04;;;;;;;24.73;10.95;;;;;;;;;;2302240;58;21062;-75
2022/01/11 11:10:33;;;;;;;26.37;11.10;;;;;;;;;;2309361;54;21354;-74
2022/01/11 11:13:01;;;;;;;25.17;8.88;;;;;;;;;;2301433;58;21065;-74
2022/01/11 11:15:32;;;;;;;24.00;10.02;;;;;;;;;;2302425;58;22130;-75
2022/01/11 11:17:59;;;;;;;17.80;9.18;;;;;;;;;;2301979;58;21054;-75
2022/01/11 11:20:26;;;;;;;19.80;9.48;;;;;;;;;;2318636;54;21088;-74
2022/01/11 11:22:54;;;;;;;23.10;10.07;;;;;;;;;;2312432;54;21137;-75
2022/01/11 11:25:21;;;;;;;21.00;10.18;;;;;;;;;;2302849;58;21140;-74
2022/01/11 11:27:48;;;;;;;22.23;9.10;;;;;;;;;;2302429;58;21070;-74
2022/01/11 11:30:16;;;;;;;22.23;10.95;;;;;;;;;;2302304;58;21552;-74
2022/01/11 11:32:44;;;;;;;27.13;10.05;;;;;;;;;;2357247;54;21707;-74
2022/01/11 11:35:12;;;;;;;20.95;9.93;;;;;;;;;;2301631;58;21061;-75
2022/01/11 11:37:40;;;;;;;19.27;9.35;;;;;;;;;;2308129;54;21584;-75
2022/01/11 11:40:10;;;;;;;22.25;10.50;;;;;;;;;;2332568;54;21628;-75
2022/01/11 11:42:38;;;;;;;28.90;10.98;;;;;;;;;;2302641;58;21129;-75
2022/01/11 11:45:14;;;;;;;23.95;10.85;;;;;;;;;;2324581;54;21536;-74
2022/01/11 11:47:41;;;;;;;25.23;11.35;;;;;;;;;;2302412;58;21541;-74
2022/01/11 11:50:12;;;;;;;25.95;9.90;;;;;;;;;;2311748;54;21042;-76
2022/01/11 11:52:42;;;;;;;26.50;11.63;;;;;;;;;;2302351;58;21073;-76
2022/01/11 11:55:11;;;;;;;16.58;8.98;;;;;;;;;;2318489;54;21078;-76
2022/01/11 11:57:40;;;;;;;29.50;10.68;;;;;;;;;;2305317;54;21070;-75
2022/01/11 12:00:11;;;;;;;27.17;9.60;;;;;;;;;;2305236;54;21133;-74
2022/01/11 12:02:39;;;;;;;23.85;10.25;;;;;;;;;;2312907;54;21062;-77
2022/01/11 12:05:07;;;;;;;22.98;10.27;;;;;;;;;;2302842;58;21668;-77
2022/01/11 12:07:38;;;;;;;20.75;10.18;;;;;;;;;;2303025;58;21685;-77
2022/01/11 12:10:09;;;;;;;20.02;9.77;;;;;;;;;;2302693;58;21612;-76
2022/01/11 12:12:43;;;;;;;22.42;9.10;;;;;;;;;;2303324;58;21062;-77
2022/01/11 12:15:34;;;;;;;19.37;9.50;;;;;;;;;;2302931;54;21034;-74
2022/01/11 12:18:17;;;;;;;23.08;9.60;;;;;;;;;;2302864;58;21041;-74
2022/01/11 12:20:45;;;;;;;19.67;9.23;;;;;;;;;;2302961;58;21168;-75
2022/01/11 12:23:13;;;;;;;21.00;9.82;;;;;;;;;;2302869;58;22216;-74
2022/01/11 12:25:42;;;;;;;20.65;10.15;;;;;;;;;;2303865;54;21241;-74
2022/01/11 12:28:16;;;;;;;26.75;10.35;;;;;;;;;;2302425;58;21061;-74
2022/01/11 12:30:43;;;;;;;31.67;10.15;;;;;;;;;;2302961;58;21058;-75
2022/01/11 12:33:11;;;;;;;18.37;9.05;;;;;;;;;;2303389;58;21069;-74
2022/01/11 12:35:57;;;;;;;20.15;9.13;;;;;;;;;;2302889;58;21514;-74
2022/01/11 12:38:25;;;;;;;18.70;8.35;;;;;;;;;;2303088;58;21066;-74
2022/01/11 12:40:52;;;;;;;26.45;9.73;;;;;;;;;;2307928;54;21611;-74
2022/01/11 12:43:40;;;;;;;22.08;10.35;;;;;;;;;;2303100;58;21058;-74
2022/01/11 12:46:08;;;;;;;19.92;8.95;;;;;;;;;;2302696;58;21070;-73
2022/01/11 12:48:54;;;;;;;21.77;10.18;;;;;;;;;;2302830;58;21042;-74
2022/01/11 12:51:32;;;;;;;22.02;10.05;;;;;;;;;;2316477;54;21054;-74
2022/01/11 12:54:33;;;;;;;19.98;8.80;;;;;;;;;;2303046;58;21595;-74
2022/01/11 12:57:01;;;;;;;27.52;9.60;;;;;;;;;;2303080;58;21061;-77
2022/01/11 12:59:30;;;;;;;24.90;10.40;;;;;;;;;;2302880;58;21188;-77
2022/01/11 13:02:01;;;;;;;21.70;9.68;;;;;;;;;;2303051;58;21110;-74
2022/01/11 13:04:42;;;;;;;20.17;9.43;;;;;;;;;;2420169;54;21077;-74
2022/01/11 13:07:14;;;;;;;24.33;9.60;;;;;;;;;;2302955;58;21121;-74
2022/01/11 13:09:41;;;;;;;22.73;9.10;;;;;;;;;;2302701;58;21046;-75
2022/01/11 13:12:08;;;;;;;23.83;10.55;;;;;;;;;;2303313;58;21595;-74
2022/01/11 13:14:40;;;;;;;22.40;9.68;;;;;;;;;;2309567;54;21054;-73
2022/01/11 13:17:08;;;;;;;22.33;9.07;;;;;;;;;;2306436;54;21126;-74
2022/01/11 13:19:40;;;;;;;26.65;10.60;;;;;;;;;;2302412;58;22211;-74
2022/01/11 13:22:09;;;;;;;22.48;9.52;;;;;;;;;;2302554;58;21121;-74
2022/01/11 13:24:36;;;;;;;23.35;9.95;;;;;;;;;;2303244;58;21607;-72
2022/01/11 13:27:11;;;;;;;18.52;10.48;;;;;;;;;;2302067;58;21068;-75
2022/01/11 13:29:38;;;;;;;18.85;8.80;;;;;;;;;;2302188;58;21133;-75
2022/01/11 13:32:06;;;;;;;20.15;9.57;;;;;;;;;;2306317;54;21066;-74
2022/01/11 13:34:34;;;;;;;21.77;9.95;;;;;;;;;;2302806;58;21057;-74
2022/01/11 13:37:02;;;;;;;23.50;10.18;;;;;;;;;;2302871;58;21062;-75
2022/01/11 13:39:33;;;;;;;24.40;10.40;;;;;;;;;;2301944;58;21560;-74
2022/01/11 13:42:02;;;;;;;20.37;8.95;;;;;;;;;;2303066;58;21129;-74
2022/01/11 13:44:30;;;;;;;20.42;8.95;;;;;;;;;;2313940;54;22171;-74
2022/01/11 13:46:59;;;;;;;23.30;10.85;;;;;;;;;;2300764;56;21117;-74
2022/01/11 13:49:27;;;;;;;22.10;10.32;;;;;;;;;;2302133;58;21057;-74
2022/01/11 13:51:55;;;;;;;20.62;9.45;;;;;;;;;;2303053;58;21548;-74
2022/01/11 13:54:22;;;;;;;19.73;9.38;;;;;;;;;;2302991;58;21134;-74
2022/01/11 13:56:50;;;;;;;16.30;9.25;;;;;;;;;;2302453;58;21045;-74
2022/01/11 13:59:26;;;;;;;24.55;10.55;;;;;;;;;;2301559;54;21065;-74
2022/01/11 14:02:01;;;;;;;22.00;10.07;;;;;;;;;;2318930;54;21201;-74
2022/01/11 14:04:28;;;;;;;19.90;9.25;;;;;;;;;;2310768;54;21086;-74
2022/01/11 14:06:56;;;;;;;18.23;9.02;;;;;;;;;;2301256;58;21148;-74
2022/01/11 14:09:32;;;;;;;17.73;8.93;;;;;;;;;;2313794;54;21050;-76
2022/01/11 14:12:06;;;;;;;21.85;9.45;;;;;;;;;;2332435;54;21054;-76
2022/01/11 14:14:33;;;;;;;17.60;8.57;;;;;;;;;;2301541;58;21627;-74
2022/01/11 14:17:12;;;;;;;18.23;8.82;;;;;;;;;;2311254;54;21141;-76
2022/01/11 14:19:46;;;;;;;23.62;9.20;;;;;;;;;;2305733;54;21058;-76
2022/01/11 14:22:13;;;;;;;25.45;10.98;;;;;;;;;;2310213;54;21070;-76
2022/01/11 14:24:50;;;;;;;22.13;9.75;;;;;;;;;;2301975;58;21117;-74
2022/01/11 14:27:20;;;;;;;18.10;8.95;;;;;;;;;;2302653;58;21141;-75